Terminal Aerodrome Forecast
Issued by NWS Sioux Falls, SD

Home | Current Version | Previous Version | Graphics & Text | Print | Product List | Glossary On
Versions: 1 2 3 4 5 6 7 8 9 10 11 12 13 14 15 16
654
FTUS43 KFSD 150208 AAA
TAFHON
TAF AMD
KHON 150208Z 1502/1524 34013G19KT 6SM BLSN SCT015 BKN035
      TEMPO 1502/1504 4SM BLSN BKN015
     FM150500 34017G27KT P6SM SCT030
     FM152300 34016G24KT P6SM BKN050=

USA.gov is the U.S. government's official web portal to all federal, state and local government web resources and services.